Terminal Aerodrome Forecast
Issued by NWS Cleveland, OH

Home | Current Version | Previous Version | Graphics & Text | Print | Product List | Glossary On
Versions: 1 2 3 4 5 6 7 8 9 10 11 12 13 14 15 16 17 18 19 20 21 22 23 24
000
FTUS41 KCLE 271133
TAFCLE
TAF
KCLE 271133Z 2712/2818 07012G20KT 6SM -RA BR SCT008 OVC015
      TEMPO 2712/2716 3SM RA BR OVC008
     FM271600 08016G26KT 3SM -SHRA BR OVC004
     FM272200 03014G22KT 4SM -SHRA BR VCTS SCT004 OVC012CB
     FM280600 34014G22KT 4SM -SHRA BR OVC007
     FM281500 31012KT 6SM BR SCT007 OVC015=

USA.gov is the U.S. government's official web portal to all federal, state and local government web resources and services.